EDLN/MGL METAR and TAF weather

Enter ICAO airport designator
Station Type Date Time Source
EDLN METAR 2018/10/19 15:50 UTC NOAA

EDLN 191550Z 34003KT 9999 BKN042 16/09 Q1024


Station Type Date Time Source
EDLN Decoded METAR 2018/10/19 15:50 UTC NOAA

Monchengladbach, Germany (EDLN) 51-13-49N 006-30-16E
Oct 19, 2018 - 11:50 AM EDT / 2018.10.19 1550 UTC
Wind: from the NNW (340 degrees) at 3 MPH (3 KT):0
Visibility: greater than 7 mile(s):0
Sky conditions: mostly cloudy
Temperature: 60 F (16 C)
Dew Point: 48 F (9 C)
Relative Humidity: 63%
Pressure (altimeter): 30.24 in. Hg (1024 hPa)
ob: EDLN 191550Z 34003KT 9999 BKN042 16/09 Q1024
cycle: 16

Station Type Date Time Source
EDLN TAF 2010/02/22 14:20 UTC NOAA

METAR EDLN 221420Z 18010G20KT 090V240 9999 SCT030 BKN045 11/06 Q0986
RMK ATIS R=


Example: see airport list